Private Wetterstation Sandau
Wetterdaten: Montag, 18.06.2012
Datum Zeit Temp. A. Feuchte A. Luftdruck Regen Wind Richtung Richtung Taupunkt Windchill
18.06.2012 00:01 17,2 C 65 % 1022,5 hPa 0,0 l/m 0,0 km/h (0 Bft) O 90 10,6 C 17,2 C
18.06.2012 00:06 17,2 C 65 % 1022,3 hPa 0,0 l/m 0,0 km/h (0 Bft) O 90 10,6 C 17,2 C
18.06.2012 00:11 17,2 C 65 % 1022,3 hPa 0,0 l/m 0,0 km/h (0 Bft) O 90 10,6 C 17,2 C
18.06.2012 00:16 17,2 C 65 % 1022,4 hPa 0,0 l/m 3,2 km/h (1 Bft) O 90 10,6 C 17,2 C
18.06.2012 00:21 17,1 C 66 % 1022,3 hPa 0,0 l/m 0,0 km/h (0 Bft) O 90 10,7 C 17,1 C
18.06.2012 00:26 16,9 C 66 % 1022,2 hPa 0,0 l/m 0,0 km/h (0 Bft) O-NO 67 10,5 C 16,9 C
18.06.2012 00:31 16,8 C 66 % 1022,3 hPa 0,0 l/m 0,0 km/h (0 Bft) O-NO 67 10,4 C 16,8 C
18.06.2012 00:36 16,8 C 67 % 1022,3 hPa 0,0 l/m 1,4 km/h (1 Bft) O-SO 112 10,6 C 16,8 C
18.06.2012 00:41 16,6 C 67 % 1022,4 hPa 0,0 l/m 0,0 km/h (0 Bft) O 90 10,4 C 16,6 C
18.06.2012 00:46 16,6 C 68 % 1022,4 hPa 0,0 l/m 0,0 km/h (0 Bft) O-SO 112 10,7 C 16,6 C
18.06.2012 00:51 16,4 C 69 % 1022,2 hPa 0,0 l/m 2,9 km/h (1 Bft) O 90 10,7 C 16,4 C
18.06.2012 00:56 16,4 C 70 % 1022,2 hPa 0,0 l/m 2,9 km/h (1 Bft) O 90 10,9 C 16,4 C
18.06.2012 01:01 16,2 C 70 % 1022,2 hPa 0,0 l/m 5,4 km/h (1 Bft) O 90 10,7 C 16,2 C
18.06.2012 01:06 16,1 C 71 % 1022,1 hPa 0,0 l/m 2,2 km/h (1 Bft) O-NO 67 10,8 C 16,1 C
18.06.2012 01:11 15,9 C 71 % 1022,1 hPa 0,0 l/m 0,0 km/h (0 Bft) O-NO 67 10,6 C 15,9 C
18.06.2012 01:16 15,8 C 71 % 1022,1 hPa 0,0 l/m 1,8 km/h (1 Bft) O 90 10,6 C 15,8 C
18.06.2012 01:21 15,8 C 71 % 1022,1 hPa 0,0 l/m 2,5 km/h (1 Bft) O 90 10,6 C 15,8 C
18.06.2012 01:26 15,8 C 71 % 1022,1 hPa 0,0 l/m 0,0 km/h (0 Bft) O 90 10,6 C 15,8 C
18.06.2012 01:31 15,6 C 71 % 1022,1 hPa 0,0 l/m 1,1 km/h (1 Bft) O 90 10,4 C 15,6 C
18.06.2012 01:36 15,6 C 71 % 1022,1 hPa 0,0 l/m 1,4 km/h (1 Bft) O 90 10,4 C 15,6 C
18.06.2012 01:41 15,6 C 71 % 1022,2 hPa 0,0 l/m 0,0 km/h (0 Bft) O 90 10,4 C 15,6 C
18.06.2012 01:46 15,5 C 71 % 1022,1 hPa 0,0 l/m 1,4 km/h (1 Bft) O 90 10,3 C 15,5 C
18.06.2012 01:51 15,5 C 71 % 1022,0 hPa 0,0 l/m 0,0 km/h (0 Bft) O 90 10,3 C 15,5 C
18.06.2012 01:56 15,4 C 71 % 1022,1 hPa 0,0 l/m 0,0 km/h (0 Bft) O 90 10,2 C 15,4 C
18.06.2012 02:01 15,4 C 71 % 1022,1 hPa 0,0 l/m 1,8 km/h (1 Bft) O-NO 67 10,2 C 15,4 C
18.06.2012 02:06 15,3 C 71 % 1022,1 hPa 0,0 l/m 1,8 km/h (1 Bft) O-NO 67 10,1 C 15,3 C
18.06.2012 02:11 15,3 C 71 % 1022,1 hPa 0,0 l/m 0,0 km/h (0 Bft) O 90 10,1 C 15,3 C
18.06.2012 02:16 15,2 C 71 % 1022,1 hPa 0,0 l/m 1,8 km/h (1 Bft) O-NO 67 10,0 C 15,2 C
18.06.2012 02:21 15,1 C 71 % 1021,9 hPa 0,0 l/m 2,2 km/h (1 Bft) O-NO 67 9,9 C 15,1 C
18.06.2012 02:26 14,9 C 72 % 1021,7 hPa 0,0 l/m 3,6 km/h (1 Bft) O 90 9,9 C 14,9 C
18.06.2012 02:31 14,9 C 72 % 1021,7 hPa 0,0 l/m 2,2 km/h (1 Bft) O 90 9,9 C 14,9 C
18.06.2012 02:36 14,9 C 72 % 1021,7 hPa 0,0 l/m 3,6 km/h (1 Bft) O 90 9,9 C 14,9 C
18.06.2012 02:41 14,9 C 72 % 1021,6 hPa 0,0 l/m 2,2 km/h (1 Bft) O-NO 67 9,9 C 14,9 C
18.06.2012 02:46 14,9 C 72 % 1021,7 hPa 0,0 l/m 0,0 km/h (0 Bft) O-NO 67 9,9 C 14,9 C
18.06.2012 02:51 14,9 C 72 % 1021,5 hPa 0,0 l/m 0,0 km/h (0 Bft) O-NO 67 9,9 C 14,9 C
18.06.2012 02:56 14,8 C 72 % 1021,5 hPa 0,0 l/m 2,5 km/h (1 Bft) O-NO 67 9,8 C 14,8 C
18.06.2012 03:01 14,7 C 72 % 1021,5 hPa 0,0 l/m 5,0 km/h (1 Bft) O-SO 112 9,7 C 14,7 C
18.06.2012 03:06 14,6 C 72 % 1021,5 hPa 0,0 l/m 3,6 km/h (1 Bft) NO 45 9,6 C 14,6 C
18.06.2012 03:11 14,5 C 72 % 1021,4 hPa 0,0 l/m 4,0 km/h (1 Bft) O-NO 67 9,5 C 14,5 C
18.06.2012 03:16 14,4 C 72 % 1021,4 hPa 0,0 l/m 4,0 km/h (1 Bft) O 90 9,4 C 14,4 C
18.06.2012 03:21 14,4 C 72 % 1021,4 hPa 0,0 l/m 3,2 km/h (1 Bft) SO 135 9,4 C 14,4 C
18.06.2012 03:26 14,4 C 73 % 1021,5 hPa 0,0 l/m 4,0 km/h (1 Bft) O 90 9,6 C 14,4 C
18.06.2012 03:31 14,4 C 73 % 1021,4 hPa 0,0 l/m 3,2 km/h (1 Bft) O 90 9,6 C 14,4 C
18.06.2012 03:36 14,3 C 73 % 1021,4 hPa 0,0 l/m 2,2 km/h (1 Bft) O 90 9,5 C 14,3 C
18.06.2012 03:41 14,3 C 73 % 1021,2 hPa 0,0 l/m 2,2 km/h (1 Bft) O 90 9,5 C 14,3 C
18.06.2012 03:46 14,1 C 73 % 1021,1 hPa 0,0 l/m 3,2 km/h (1 Bft) O-SO 112 9,3 C 14,1 C
18.06.2012 03:51 14,1 C 73 % 1021,0 hPa 0,0 l/m 0,0 km/h (0 Bft) O 90 9,3 C 14,1 C
18.06.2012 03:56 13,9 C 74 % 1020,9 hPa 0,0 l/m 0,0 km/h (0 Bft) O 90 9,3 C 13,9 C
18.06.2012 04:01 13,9 C 74 % 1020,9 hPa 0,0 l/m 4,3 km/h (1 Bft) O 90 9,3 C 13,9 C
18.06.2012 04:06 13,8 C 74 % 1021,0 hPa 0,0 l/m 4,0 km/h (1 Bft) O 90 9,2 C 13,8 C
18.06.2012 04:11 13,8 C 74 % 1020,8 hPa 0,0 l/m 5,0 km/h (1 Bft) O 90 9,2 C 13,8 C
18.06.2012 04:16 13,6 C 74 % 1020,7 hPa 0,0 l/m 0,0 km/h (0 Bft) O-NO 67 9,1 C 13,6 C
18.06.2012 04:21 13,6 C 74 % 1020,8 hPa 0,0 l/m 3,2 km/h (1 Bft) O-NO 67 9,1 C 13,6 C
18.06.2012 04:26 13,5 C 75 % 1020,7 hPa 0,0 l/m 3,2 km/h (1 Bft) O-NO 67 9,2 C 13,5 C
18.06.2012 04:31 13,4 C 75 % 1020,6 hPa 0,0 l/m 2,2 km/h (1 Bft) O-NO 67 9,1 C 13,4 C
18.06.2012 04:36 13,4 C 75 % 1020,5 hPa 0,0 l/m 3,2 km/h (1 Bft) O 90 9,1 C 13,4 C
18.06.2012 04:41 13,3 C 75 % 1020,4 hPa 0,0 l/m 5,8 km/h (2 Bft) O-NO 67 9,0 C 13,3 C
18.06.2012 04:46 13,3 C 75 % 1020,4 hPa 0,0 l/m 6,5 km/h (2 Bft) SO 135 9,0 C 13,3 C
18.06.2012 04:51 13,3 C 75 % 1020,4 hPa 0,0 l/m 5,4 km/h (1 Bft) O 90 9,0 C 13,3 C
18.06.2012 04:56 13,3 C 75 % 1020,3 hPa 0,0 l/m 4,7 km/h (1 Bft) O-NO 67 9,0 C 13,3 C
18.06.2012 05:01 13,2 C 75 % 1020,3 hPa 0,0 l/m 5,0 km/h (1 Bft) O-NO 67 8,9 C 13,2 C
18.06.2012 05:06 13,2 C 76 % 1020,3 hPa 0,0 l/m 4,0 km/h (1 Bft) O-SO 112 9,1 C 13,2 C
18.06.2012 05:11 13,1 C 76 % 1020,3 hPa 0,0 l/m 5,8 km/h (2 Bft) O-NO 67 9,0 C 13,1 C
18.06.2012 05:16 13,2 C 76 % 1020,2 hPa 0,0 l/m 5,0 km/h (1 Bft) O 90 9,1 C 13,2 C
18.06.2012 05:21 13,2 C 76 % 1020,2 hPa 0,0 l/m 4,3 km/h (1 Bft) O 90 9,1 C 13,2 C
18.06.2012 05:26 13,2 C 76 % 1020,0 hPa 0,0 l/m 6,1 km/h (2 Bft) O-SO 112 9,1 C 13,2 C
18.06.2012 05:31 13,1 C 76 % 1019,9 hPa 0,0 l/m 8,6 km/h (2 Bft) O-SO 112 9,0 C 13,1 C
18.06.2012 05:36 13,2 C 76 % 1019,9 hPa 0,0 l/m 4,0 km/h (1 Bft) O 90 9,1 C 13,2 C
18.06.2012 05:41 13,2 C 76 % 1020,0 hPa 0,0 l/m 5,8 km/h (2 Bft) O 90 9,1 C 13,2 C
18.06.2012 05:46 13,3 C 76 % 1020,0 hPa 0,0 l/m 4,3 km/h (1 Bft) O-SO 112 9,2 C 13,3 C
18.06.2012 05:51 13,8 C 76 % 1019,7 hPa 0,0 l/m 5,4 km/h (1 Bft) O 90 9,6 C 13,8 C
18.06.2012 05:56 14,2 C 75 % 1019,8 hPa 0,0 l/m 6,8 km/h (2 Bft) O 90 9,8 C 14,2 C
18.06.2012 06:01 14,7 C 74 % 1019,8 hPa 0,0 l/m 2,9 km/h (1 Bft) O 90 10,1 C 14,7 C
18.06.2012 06:06 14,9 C 72 % 1019,7 hPa 0,0 l/m 3,6 km/h (1 Bft) O 90 9,9 C 14,9 C
18.06.2012 06:11 15,2 C 72 % 1019,7 hPa 0,0 l/m 4,7 km/h (1 Bft) O-SO 112 10,2 C 15,2 C
18.06.2012 06:16 15,4 C 71 % 1019,7 hPa 0,0 l/m 3,6 km/h (1 Bft) O 90 10,2 C 15,4 C
18.06.2012 06:21 15,5 C 70 % 1019,9 hPa 0,0 l/m 6,8 km/h (2 Bft) O-NO 67 10,1 C 15,5 C
18.06.2012 06:26 15,6 C 70 % 1019,7 hPa 0,0 l/m 2,9 km/h (1 Bft) SO 135 10,1 C 15,6 C
18.06.2012 06:31 15,6 C 70 % 1019,8 hPa 0,0 l/m 3,6 km/h (1 Bft) SO 135 10,1 C 15,6 C
18.06.2012 06:36 15,7 C 70 % 1019,7 hPa 0,0 l/m 5,0 km/h (1 Bft) SO 135 10,2 C 15,7 C
18.06.2012 06:41 15,7 C 70 % 1019,7 hPa 0,0 l/m 3,6 km/h (1 Bft) O-NO 67 10,2 C 15,7 C
18.06.2012 06:46 15,6 C 70 % 1019,5 hPa 0,0 l/m 9,7 km/h (2 Bft) O 90 10,1 C 15,6 C
18.06.2012 06:51 15,6 C 70 % 1019,3 hPa 0,0 l/m 6,5 km/h (2 Bft) O-NO 67 10,1 C 15,6 C
18.06.2012 06:56 15,7 C 70 % 1019,2 hPa 0,0 l/m 4,7 km/h (1 Bft) O 90 10,2 C 15,7 C
18.06.2012 07:01 15,8 C 71 % 1019,2 hPa 0,0 l/m 2,2 km/h (1 Bft) O-SO 112 10,6 C 15,8 C
18.06.2012 07:06 15,9 C 71 % 1019,1 hPa 0,0 l/m 6,5 km/h (2 Bft) O-NO 67 10,6 C 15,9 C
18.06.2012 07:11 16,1 C 71 % 1019,0 hPa 0,0 l/m 6,8 km/h (2 Bft) O-NO 67 10,8 C 16,1 C
18.06.2012 07:16 16,4 C 71 % 1019,0 hPa 0,0 l/m 5,0 km/h (1 Bft) O-NO 67 11,1 C 16,4 C
18.06.2012 07:21 16,6 C 70 % 1018,7 hPa 0,0 l/m 7,2 km/h (2 Bft) O-SO 112 11,1 C 16,6 C
18.06.2012 07:26 16,6 C 71 % 1018,8 hPa 0,0 l/m 7,6 km/h (2 Bft) O-SO 112 11,3 C 16,6 C
18.06.2012 07:31 16,5 C 71 % 1018,7 hPa 0,0 l/m 7,2 km/h (2 Bft) O-SO 112 11,2 C 16,5 C
18.06.2012 07:36 16,4 C 71 % 1018,6 hPa 0,0 l/m 8,3 km/h (2 Bft) O-SO 112 11,1 C 16,4 C
18.06.2012 07:41 16,4 C 71 % 1018,5 hPa 0,0 l/m 6,5 km/h (2 Bft) O 90 11,1 C 16,4 C
18.06.2012 07:46 16,3 C 72 % 1018,5 hPa 0,0 l/m 5,8 km/h (2 Bft) O-SO 112 11,2 C 16,3 C
18.06.2012 07:51 16,3 C 72 % 1018,3 hPa 0,0 l/m 5,0 km/h (1 Bft) O-SO 112 11,2 C 16,3 C
18.06.2012 07:56 16,3 C 73 % 1018,3 hPa 0,0 l/m 4,7 km/h (1 Bft) O 90 11,4 C 16,3 C
18.06.2012 08:01 16,4 C 73 % 1018,2 hPa 0,0 l/m 5,8 km/h (2 Bft) O-NO 67 11,5 C 16,4 C
18.06.2012 08:06 16,7 C 73 % 1018,0 hPa 0,0 l/m 3,2 km/h (1 Bft) SO 135 11,8 C 16,7 C
18.06.2012 08:11 16,9 C 73 % 1018,1 hPa 0,0 l/m 9,7 km/h (2 Bft) SO 135 12,0 C 16,9 C
18.06.2012 08:16 17,0 C 72 % 1018,2 hPa 0,0 l/m 7,9 km/h (2 Bft) SO 135 11,9 C 17,0 C
18.06.2012 08:21 17,1 C 72 % 1018,3 hPa 0,0 l/m 5,0 km/h (1 Bft) O 90 12,0 C 17,1 C
18.06.2012 08:26 17,3 C 72 % 1018,4 hPa 0,0 l/m 6,8 km/h (2 Bft) SO 135 12,2 C 17,3 C
18.06.2012 08:31 17,4 C 72 % 1018,4 hPa 0,0 l/m 4,0 km/h (1 Bft) S-SO 157 12,3 C 17,4 C
18.06.2012 08:36 17,9 C 73 % 1018,2 hPa 0,0 l/m 4,0 km/h (1 Bft) O-SO 112 13,0 C 17,9 C
18.06.2012 08:41 18,3 C 71 % 1018,1 hPa 0,0 l/m 4,3 km/h (1 Bft) O 90 12,9 C 18,3 C
18.06.2012 08:46 18,8 C 70 % 1018,0 hPa 0,0 l/m 5,4 km/h (1 Bft) O-SO 112 13,2 C 18,8 C
18.06.2012 08:51 19,2 C 69 % 1017,9 hPa 0,0 l/m 6,8 km/h (2 Bft) O-SO 112 13,4 C 19,2 C
18.06.2012 08:56 19,6 C 68 % 1017,9 hPa 0,0 l/m 12,2 km/h (2 Bft) S-SO 157 13,5 C 19,6 C
18.06.2012 09:01 20,1 C 64 % 1017,8 hPa 0,0 l/m 15,1 km/h (3 Bft) O 90 13,1 C 20,1 C
18.06.2012 09:06 20,5 C 62 % 1017,7 hPa 0,0 l/m 6,5 km/h (2 Bft) O-SO 112 13,0 C 20,5 C
18.06.2012 09:11 20,9 C 61 % 1017,8 hPa 0,0 l/m 4,3 km/h (1 Bft) SO 135 13,1 C 20,9 C
18.06.2012 09:16 21,3 C 60 % 1017,6 hPa 0,0 l/m 4,0 km/h (1 Bft) S-SO 157 13,2 C 21,3 C
18.06.2012 09:21 21,6 C 59 % 1017,6 hPa 0,0 l/m 14,4 km/h (3 Bft) S-SO 157 13,2 C 21,6 C
18.06.2012 09:26 21,8 C 58 % 1017,5 hPa 0,0 l/m 9,4 km/h (2 Bft) SO 135 13,2 C 21,8 C
18.06.2012 09:31 21,9 C 57 % 1017,4 hPa 0,0 l/m 9,0 km/h (2 Bft) O-SO 112 13,0 C 21,9 C
18.06.2012 09:36 21,9 C 57 % 1017,4 hPa 0,0 l/m 5,8 km/h (2 Bft) SO 135 13,0 C 21,9 C
18.06.2012 09:41 22,2 C 57 % 1017,2 hPa 0,0 l/m 5,0 km/h (1 Bft) S 180 13,3 C 22,2 C
18.06.2012 09:46 22,4 C 56 % 1017,1 hPa 0,0 l/m 14,4 km/h (3 Bft) S-SO 157 13,2 C 22,4 C
18.06.2012 09:51 22,5 C 56 % 1016,9 hPa 0,0 l/m 22,0 km/h (4 Bft) SO 135 13,3 C 22,5 C
18.06.2012 09:56 22,6 C 56 % 1016,8 hPa 0,0 l/m 6,5 km/h (2 Bft) SO 135 13,4 C 22,6 C
18.06.2012 10:01 22,9 C 56 % 1016,6 hPa 0,0 l/m 4,0 km/h (1 Bft) O 90 13,6 C 22,9 C
18.06.2012 10:06 23,2 C 55 % 1016,4 hPa 0,0 l/m 18,4 km/h (3 Bft) SO 135 13,6 C 23,2 C
18.06.2012 10:11 23,3 C 54 % 1016,3 hPa 0,0 l/m 9,4 km/h (2 Bft) S 180 13,5 C 23,3 C
18.06.2012 10:16 23,4 C 54 % 1016,1 hPa 0,0 l/m 9,4 km/h (2 Bft) O-NO 67 13,6 C 23,4 C
18.06.2012 10:21 23,6 C 53 % 1015,9 hPa 0,0 l/m 8,3 km/h (2 Bft) O-NO 67 13,4 C 23,6 C
18.06.2012 10:26 23,6 C 53 % 1016,0 hPa 0,0 l/m 6,8 km/h (2 Bft) O-NO 67 13,4 C 23,6 C
18.06.2012 10:31 23,8 C 53 % 1015,8 hPa 0,0 l/m 15,5 km/h (3 Bft) O-NO 67 13,6 C 23,8 C
18.06.2012 10:36 23,8 C 52 % 1015,7 hPa 0,0 l/m 13,7 km/h (3 Bft) SO 135 13,3 C 23,8 C
18.06.2012 10:41 23,9 C 52 % 1015,6 hPa 0,0 l/m 10,1 km/h (2 Bft) S-SO 157 13,4 C 23,9 C
18.06.2012 10:46 24,1 C 52 % 1015,5 hPa 0,0 l/m 15,1 km/h (3 Bft) S-SO 157 13,6 C 24,1 C
18.06.2012 10:51 24,3 C 51 % 1015,2 hPa 0,0 l/m 28,4 km/h (4 Bft) O-SO 112 13,5 C 24,3 C
18.06.2012 10:56 24,4 C 52 % 1014,9 hPa 0,0 l/m 22,7 km/h (4 Bft) O-SO 112 13,9 C 24,4 C
18.06.2012 11:01 24,8 C 51 % 1014,8 hPa 0,0 l/m 19,8 km/h (3 Bft) SO 135 14,0 C 24,8 C
18.06.2012 11:06 24,9 C 51 % 1014,7 hPa 0,0 l/m 29,5 km/h (5 Bft) O-SO 112 14,1 C 24,9 C
18.06.2012 11:11 24,9 C 51 % 1014,5 hPa 0,0 l/m 7,6 km/h (2 Bft) O-NO 67 14,1 C 24,9 C
18.06.2012 11:16 25,1 C 51 % 1014,5 hPa 0,0 l/m 16,9 km/h (3 Bft) S-SO 157 14,2 C 25,1 C
18.06.2012 11:21 25,3 C 51 % 1014,4 hPa 0,0 l/m 6,5 km/h (2 Bft) SO 135 14,4 C 25,3 C
18.06.2012 11:26 25,5 C 50 % 1014,2 hPa 0,0 l/m 8,3 km/h (2 Bft) O-SO 112 14,3 C 25,5 C
18.06.2012 11:31 25,6 C 50 % 1014,1 hPa 0,0 l/m 16,2 km/h (3 Bft) SO 135 14,4 C 25,6 C
18.06.2012 11:36 25,8 C 50 % 1013,8 hPa 0,0 l/m 12,6 km/h (3 Bft) O-SO 112 14,6 C 25,8 C
18.06.2012 11:41 25,9 C 50 % 1013,6 hPa 0,0 l/m 13,3 km/h (3 Bft) O 90 14,7 C 25,9 C
18.06.2012 11:46 26,1 C 49 % 1013,7 hPa 0,0 l/m 19,8 km/h (3 Bft) S-SO 157 14,5 C 26,1 C
18.06.2012 11:51 26,2 C 49 % 1013,4 hPa 0,0 l/m 27,7 km/h (4 Bft) O-SO 112 14,6 C 26,2 C
18.06.2012 11:56 26,3 C 49 % 1013,4 hPa 0,0 l/m 7,2 km/h (2 Bft) O-NO 67 14,7 C 26,3 C
18.06.2012 12:01 26,6 C 49 % 1013,3 hPa 0,0 l/m 9,7 km/h (2 Bft) SO 135 15,0 C 26,6 C
18.06.2012 12:06 26,8 C 48 % 1013,1 hPa 0,0 l/m 12,6 km/h (3 Bft) O-SO 112 14,9 C 26,8 C
18.06.2012 12:11 26,9 C 49 % 1013,2 hPa 0,0 l/m 12,6 km/h (3 Bft) SO 135 15,3 C 26,9 C
18.06.2012 12:16 27,2 C 49 % 1012,9 hPa 0,0 l/m 20,9 km/h (4 Bft) S 180 15,5 C 27,2 C
18.06.2012 12:21 27,4 C 48 % 1012,8 hPa 0,0 l/m 20,9 km/h (4 Bft) S-SO 157 15,4 C 27,4 C
18.06.2012 12:26 27,8 C 48 % 1012,6 hPa 0,0 l/m 17,3 km/h (3 Bft) SO 135 15,8 C 27,8 C
18.06.2012 12:31 28,1 C 48 % 1012,8 hPa 0,0 l/m 11,2 km/h (2 Bft) O 90 16,0 C 28,1 C
18.06.2012 12:36 28,2 C 47 % 1012,7 hPa 0,0 l/m 19,1 km/h (3 Bft) SO 135 15,8 C 28,2 C
18.06.2012 12:41 28,3 C 47 % 1012,9 hPa 0,0 l/m 14,8 km/h (3 Bft) SO 135 15,9 C 28,3 C
18.06.2012 12:46 28,6 C 47 % 1012,8 hPa 0,0 l/m 17,3 km/h (3 Bft) O-SO 112 16,2 C 28,6 C
18.06.2012 12:51 28,9 C 46 % 1012,8 hPa 0,0 l/m 7,9 km/h (2 Bft) SO 135 16,1 C 28,9 C
18.06.2012 12:56 29,0 C 46 % 1012,9 hPa 0,0 l/m 5,8 km/h (2 Bft) SO 135 16,2 C 29,0 C
18.06.2012 13:01 29,3 C 46 % 1012,9 hPa 0,0 l/m 4,0 km/h (1 Bft) SO 135 16,5 C 29,3 C
18.06.2012 13:06 29,3 C 46 % 1012,8 hPa 0,0 l/m 11,2 km/h (2 Bft) SO 135 16,5 C 29,3 C
18.06.2012 13:11 29,1 C 45 % 1012,7 hPa 0,0 l/m 12,2 km/h (2 Bft) O-SO 112 15,9 C 29,1 C
18.06.2012 13:16 29,1 C 46 % 1012,4 hPa 0,0 l/m 23,0 km/h (4 Bft) SO 135 16,3 C 29,1 C
18.06.2012 13:21 29,3 C 46 % 1012,6 hPa 0,0 l/m 16,6 km/h (3 Bft) SO 135 16,5 C 29,3 C
18.06.2012 13:26 29,5 C 46 % 1012,6 hPa 0,0 l/m 13,0 km/h (3 Bft) S-SO 157 16,6 C 29,5 C
18.06.2012 13:31 29,8 C 46 % 1012,3 hPa 0,0 l/m 4,7 km/h (1 Bft) O-SO 112 16,9 C 29,8 C
18.06.2012 13:36 30,1 C 46 % 1012,3 hPa 0,0 l/m 7,2 km/h (2 Bft) S-SO 157 17,2 C 30,1 C
18.06.2012 13:41 30,3 C 45 % 1012,1 hPa 0,0 l/m 6,5 km/h (2 Bft) S-SW 202 17,0 C 30,3 C
18.06.2012 13:46 30,3 C 45 % 1012,0 hPa 0,0 l/m 11,9 km/h (2 Bft) S-SO 157 17,0 C 30,3 C
18.06.2012 13:51 30,4 C 46 % 1012,0 hPa 0,0 l/m 28,1 km/h (4 Bft) S-SW 202 17,5 C 30,4 C
18.06.2012 13:56 30,6 C 45 % 1012,1 hPa 0,0 l/m 18,0 km/h (3 Bft) S-SO 157 17,3 C 30,6 C
18.06.2012 14:01 30,6 C 45 % 1012,0 hPa 0,0 l/m 30,2 km/h (5 Bft) S-SO 157 17,3 C 30,6 C
18.06.2012 14:06 30,7 C 44 % 1011,7 hPa 0,0 l/m 25,9 km/h (4 Bft) S 180 17,0 C 30,7 C
18.06.2012 14:11 30,8 C 44 % 1011,7 hPa 0,0 l/m 13,7 km/h (3 Bft) SO 135 17,1 C 30,8 C
18.06.2012 14:16 30,9 C 45 % 1011,7 hPa 0,0 l/m 9,4 km/h (2 Bft) S 180 17,6 C 30,9 C
18.06.2012 14:21 30,9 C 44 % 1011,6 hPa 0,0 l/m 18,4 km/h (3 Bft) S-SO 157 17,2 C 30,9 C
18.06.2012 14:26 30,6 C 45 % 1011,6 hPa 0,0 l/m 7,2 km/h (2 Bft) S 180 17,3 C 30,6 C
18.06.2012 14:31 30,5 C 46 % 1011,6 hPa 0,0 l/m 25,6 km/h (4 Bft) S-SO 157 17,5 C 30,5 C
18.06.2012 14:36 30,7 C 45 % 1011,6 hPa 0,0 l/m 19,1 km/h (3 Bft) S 180 17,4 C 30,7 C
18.06.2012 14:41 30,9 C 45 % 1011,6 hPa 0,0 l/m 28,8 km/h (4 Bft) S 180 17,6 C 30,9 C
18.06.2012 14:46 30,9 C 44 % 1011,6 hPa 0,0 l/m 34,2 km/h (5 Bft) S-SO 157 17,2 C 30,9 C
18.06.2012 14:51 31,1 C 44 % 1011,6 hPa 0,0 l/m 22,0 km/h (4 Bft) SW 225 17,4 C 31,1 C
18.06.2012 14:56 31,1 C 44 % 1011,4 hPa 0,0 l/m 13,3 km/h (3 Bft) S-SW 202 17,4 C 31,1 C
18.06.2012 15:01 31,2 C 44 % 1011,4 hPa 0,0 l/m 15,5 km/h (3 Bft) SO 135 17,5 C 31,2 C
18.06.2012 15:06 31,1 C 44 % 1011,3 hPa 0,0 l/m 8,3 km/h (2 Bft) O 90 17,4 C 31,1 C
18.06.2012 15:11 30,9 C 45 % 1011,3 hPa 0,0 l/m 16,6 km/h (3 Bft) S 180 17,6 C 30,9 C
18.06.2012 15:16 30,6 C 45 % 1011,2 hPa 0,0 l/m 20,5 km/h (4 Bft) S-SO 157 17,3 C 30,6 C
18.06.2012 15:21 30,5 C 46 % 1011,2 hPa 0,0 l/m 15,5 km/h (3 Bft) S 180 17,5 C 30,5 C
18.06.2012 15:26 30,3 C 46 % 1011,1 hPa 0,0 l/m 18,0 km/h (3 Bft) SO 135 17,4 C 30,3 C
18.06.2012 15:31 30,1 C 46 % 1011,0 hPa 0,0 l/m 19,8 km/h (3 Bft) SO 135 17,2 C 30,1 C
18.06.2012 15:36 30,0 C 47 % 1011,0 hPa 0,0 l/m 14,0 km/h (3 Bft) S 180 17,4 C 30,0 C
18.06.2012 15:41 29,9 C 47 % 1011,1 hPa 0,0 l/m 12,6 km/h (3 Bft) SW 225 17,3 C 29,9 C
18.06.2012 15:46 29,8 C 46 % 1011,3 hPa 0,0 l/m 11,9 km/h (2 Bft) SW 225 16,9 C 29,8 C
18.06.2012 15:51 29,5 C 46 % 1011,2 hPa 0,0 l/m 23,4 km/h (4 Bft) SW 225 16,6 C 29,5 C
18.06.2012 15:56 29,3 C 46 % 1011,3 hPa 0,0 l/m 7,6 km/h (2 Bft) S 180 16,5 C 29,3 C
18.06.2012 16:01 29,2 C 47 % 1011,4 hPa 0,0 l/m 6,1 km/h (2 Bft) S-SW 202 16,7 C 29,2 C
18.06.2012 16:06 29,1 C 47 % 1011,6 hPa 0,0 l/m 9,7 km/h (2 Bft) S 180 16,6 C 29,1 C
18.06.2012 16:11 29,1 C 48 % 1011,6 hPa 0,0 l/m 16,2 km/h (3 Bft) S-SW 202 16,9 C 29,1 C
18.06.2012 16:16 29,1 C 49 % 1011,3 hPa 0,0 l/m 13,0 km/h (3 Bft) W 270 17,3 C 29,1 C
18.06.2012 16:21 29,3 C 50 % 1011,2 hPa 0,0 l/m 14,8 km/h (3 Bft) S-SW 202 17,8 C 29,3 C
18.06.2012 16:26 29,4 C 49 % 1011,3 hPa 0,0 l/m 28,8 km/h (4 Bft) S-SW 202 17,5 C 29,4 C
18.06.2012 16:31 29,7 C 49 % 1011,1 hPa 0,0 l/m 10,8 km/h (2 Bft) W-SW 247 17,8 C 29,7 C
18.06.2012 16:36 30,1 C 49 % 1011,2 hPa 0,0 l/m 21,2 km/h (4 Bft) SW 225 18,2 C 30,1 C
18.06.2012 16:41 30,4 C 45 % 1011,1 hPa 0,0 l/m 15,1 km/h (3 Bft) SW 225 17,1 C 30,4 C
18.06.2012 16:46 30,3 C 46 % 1011,0 hPa 0,0 l/m 11,9 km/h (2 Bft) S-SW 202 17,4 C 30,3 C
18.06.2012 16:51 30,1 C 46 % 1011,0 hPa 0,0 l/m 18,0 km/h (3 Bft) S-SW 202 17,2 C 30,1 C
18.06.2012 16:56 29,9 C 47 % 1010,9 hPa 0,0 l/m 14,0 km/h (3 Bft) W-SW 247 17,3 C 29,9 C
18.06.2012 17:01 29,6 C 48 % 1011,1 hPa 0,0 l/m 7,2 km/h (2 Bft) W-NW 292 17,4 C 29,6 C
18.06.2012 17:06 29,5 C 47 % 1010,9 hPa 0,0 l/m 21,2 km/h (4 Bft) W-SW 247 17,0 C 29,5 C
18.06.2012 17:11 29,4 C 47 % 1011,0 hPa 0,0 l/m 32,8 km/h (5 Bft) W-SW 247 16,9 C 29,4 C
18.06.2012 17:16 29,3 C 48 % 1010,9 hPa 0,0 l/m 23,8 km/h (4 Bft) W 270 17,1 C 29,3 C
18.06.2012 17:21 29,4 C 47 % 1010,9 hPa 0,0 l/m 30,6 km/h (5 Bft) W-SW 247 16,9 C 29,4 C
18.06.2012 17:26 29,6 C 46 % 1011,0 hPa 0,0 l/m 35,3 km/h (5 Bft) W-SW 247 16,7 C 29,6 C
18.06.2012 17:31 29,8 C 45 % 1011,3 hPa 0,0 l/m 17,3 km/h (3 Bft) W-SW 247 16,6 C 29,8 C
18.06.2012 17:36 29,9 C 45 % 1011,6 hPa 0,0 l/m 25,6 km/h (4 Bft) W 270 16,7 C 29,9 C
18.06.2012 17:41 29,9 C 45 % 1011,7 hPa 0,0 l/m 21,6 km/h (4 Bft) W-NW 292 16,7 C 29,9 C
18.06.2012 17:46 29,9 C 45 % 1011,8 hPa 0,0 l/m 33,8 km/h (5 Bft) W 270 16,7 C 29,9 C
18.06.2012 17:51 29,6 C 45 % 1011,7 hPa 0,0 l/m 21,6 km/h (4 Bft) W-NW 292 16,4 C 29,6 C
18.06.2012 17:56 29,5 C 45 % 1011,7 hPa 0,0 l/m 24,5 km/h (4 Bft) W 270 16,3 C 29,5 C
18.06.2012 18:01 29,3 C 45 % 1011,7 hPa 0,0 l/m 25,9 km/h (4 Bft) W-SW 247 16,1 C 29,3 C
18.06.2012 18:06 29,1 C 45 % 1011,8 hPa 0,0 l/m 13,3 km/h (3 Bft) NW 315 15,9 C 29,1 C
18.06.2012 18:11 28,9 C 44 % 1011,8 hPa 0,0 l/m 13,3 km/h (3 Bft) S 180 15,4 C 28,9 C
18.06.2012 18:16 28,5 C 43 % 1012,0 hPa 0,0 l/m 18,7 km/h (3 Bft) W-SW 247 14,7 C 28,5 C
18.06.2012 18:21 28,2 C 41 % 1012,4 hPa 0,0 l/m 18,7 km/h (3 Bft) W-SW 247 13,7 C 28,2 C
18.06.2012 18:26 27,9 C 42 % 1012,7 hPa 0,0 l/m 16,6 km/h (3 Bft) W 270 13,8 C 27,9 C
18.06.2012 18:31 27,8 C 42 % 1012,7 hPa 0,0 l/m 26,6 km/h (4 Bft) W-SW 247 13,7 C 27,8 C
18.06.2012 18:36 27,7 C 42 % 1012,8 hPa 0,0 l/m 9,4 km/h (2 Bft) W-NW 292 13,6 C 27,7 C
18.06.2012 18:41 27,6 C 42 % 1012,9 hPa 0,0 l/m 15,8 km/h (3 Bft) W-NW 292 13,5 C 27,6 C
18.06.2012 18:46 27,6 C 42 % 1013,1 hPa 0,0 l/m 14,8 km/h (3 Bft) N 360 13,5 C 27,6 C
18.06.2012 18:51 27,3 C 42 % 1013,3 hPa 0,0 l/m 11,9 km/h (2 Bft) NW 315 13,2 C 27,3 C
18.06.2012 18:56 26,8 C 43 % 1013,6 hPa 0,0 l/m 28,8 km/h (4 Bft) W 270 13,2 C 26,8 C
18.06.2012 19:01 26,2 C 44 % 1013,7 hPa 0,0 l/m 36,7 km/h (5 Bft) NW 315 13,0 C 26,2 C
18.06.2012 19:06 25,6 C 44 % 1013,8 hPa 0,0 l/m 28,1 km/h (4 Bft) W 270 12,4 C 25,6 C
18.06.2012 19:11 25,4 C 45 % 1014,0 hPa 0,0 l/m 25,2 km/h (4 Bft) W 270 12,6 C 25,4 C
18.06.2012 19:16 25,0 C 45 % 1014,1 hPa 0,0 l/m 33,5 km/h (5 Bft) W-NW 292 12,2 C 25,0 C
18.06.2012 19:21 24,6 C 46 % 1014,1 hPa 0,0 l/m 23,8 km/h (4 Bft) NW 315 12,2 C 24,6 C
18.06.2012 19:26 24,4 C 47 % 1014,5 hPa 0,0 l/m 27,7 km/h (4 Bft) NW 315 12,3 C 24,4 C
18.06.2012 19:31 24,3 C 47 % 1014,6 hPa 0,0 l/m 27,0 km/h (4 Bft) W-NW 292 12,3 C 24,3 C
18.06.2012 19:36 24,1 C 47 % 1014,6 hPa 0,0 l/m 12,6 km/h (3 Bft) NW 315 12,1 C 24,1 C
18.06.2012 19:41 23,9 C 47 % 1014,8 hPa 0,0 l/m 14,8 km/h (3 Bft) NW 315 11,9 C 23,9 C
18.06.2012 19:46 23,6 C 47 % 1014,9 hPa 0,0 l/m 26,3 km/h (4 Bft) W 270 11,6 C 23,6 C
18.06.2012 19:51 23,5 C 48 % 1015,0 hPa 0,0 l/m 24,1 km/h (4 Bft) W 270 11,8 C 23,5 C
18.06.2012 19:56 23,2 C 48 % 1015,1 hPa 0,0 l/m 23,0 km/h (4 Bft) W 270 11,6 C 23,2 C
18.06.2012 20:01 23,0 C 49 % 1015,1 hPa 0,0 l/m 9,4 km/h (2 Bft) NW 315 11,7 C 23,0 C
18.06.2012 20:06 22,9 C 49 % 1015,2 hPa 0,0 l/m 18,0 km/h (3 Bft) W-NW 292 11,6 C 22,9 C
18.06.2012 20:11 22,6 C 49 % 1015,2 hPa 0,0 l/m 10,8 km/h (2 Bft) W-NW 292 11,3 C 22,6 C
18.06.2012 20:16 22,4 C 50 % 1015,4 hPa 0,0 l/m 27,0 km/h (4 Bft) W-NW 292 11,5 C 22,4 C
18.06.2012 20:21 22,3 C 50 % 1015,3 hPa 0,0 l/m 22,3 km/h (4 Bft) NW 315 11,4 C 22,3 C
18.06.2012 20:26 22,1 C 51 % 1015,6 hPa 0,0 l/m 18,7 km/h (3 Bft) W-NW 292 11,5 C 22,1 C
18.06.2012 20:31 21,8 C 51 % 1015,7 hPa 0,0 l/m 27,7 km/h (4 Bft) W-NW 292 11,2 C 21,8 C
18.06.2012 20:36 21,6 C 51 % 1015,9 hPa 0,0 l/m 12,6 km/h (3 Bft) W-NW 292 11,0 C 21,6 C
18.06.2012 20:41 21,4 C 51 % 1016,2 hPa 0,0 l/m 17,3 km/h (3 Bft) NW 315 10,8 C 21,4 C
18.06.2012 20:46 21,3 C 52 % 1016,3 hPa 0,0 l/m 26,3 km/h (4 Bft) W 270 11,0 C 21,3 C
18.06.2012 20:51 21,1 C 52 % 1016,5 hPa 0,0 l/m 16,9 km/h (3 Bft) W 270 10,9 C 21,1 C
18.06.2012 20:56 20,9 C 53 % 1016,5 hPa 0,0 l/m 15,1 km/h (3 Bft) NW 315 11,0 C 20,9 C
18.06.2012 21:01 20,8 C 53 % 1016,6 hPa 0,0 l/m 7,9 km/h (2 Bft) W 270 10,9 C 20,8 C
18.06.2012 21:06 20,6 C 54 % 1016,8 hPa 0,0 l/m 24,5 km/h (4 Bft) NW 315 11,0 C 20,6 C
18.06.2012 21:11 20,5 C 54 % 1017,0 hPa 0,0 l/m 11,5 km/h (2 Bft) NW 315 10,9 C 20,5 C
18.06.2012 21:16 20,3 C 54 % 1017,1 hPa 0,0 l/m 13,0 km/h (3 Bft) W-NW 292 10,7 C 20,3 C
18.06.2012 21:21 20,1 C 54 % 1017,2 hPa 0,0 l/m 12,6 km/h (3 Bft) W-NW 292 10,5 C 20,1 C
18.06.2012 21:26 19,9 C 54 % 1017,3 hPa 0,0 l/m 10,8 km/h (2 Bft) N 360 10,3 C 19,9 C
18.06.2012 21:31 19,8 C 55 % 1017,5 hPa 0,0 l/m 3,2 km/h (1 Bft) W-NW 292 10,5 C 19,8 C
18.06.2012 21:36 19,6 C 56 % 1017,7 hPa 0,0 l/m 3,2 km/h (1 Bft) N-NW 337 10,6 C 19,6 C
18.06.2012 21:41 19,3 C 58 % 1017,8 hPa 0,0 l/m 3,6 km/h (1 Bft) N-NO 22 10,8 C 19,3 C
18.06.2012 21:46 18,9 C 59 % 1018,0 hPa 0,0 l/m 0,0 km/h (0 Bft) N-NO 22 10,7 C 18,9 C
18.06.2012 21:51 18,6 C 59 % 1018,3 hPa 0,0 l/m 2,5 km/h (1 Bft) N-NW 337 10,4 C 18,6 C
18.06.2012 21:56 18,4 C 59 % 1018,3 hPa 0,0 l/m 2,9 km/h (1 Bft) NO 45 10,2 C 18,4 C
18.06.2012 22:01 18,3 C 60 % 1018,7 hPa 0,0 l/m 0,0 km/h (0 Bft) N-NO 22 10,4 C 18,3 C
18.06.2012 22:06 18,1 C 61 % 1018,8 hPa 0,0 l/m 4,0 km/h (1 Bft) O-NO 67 10,5 C 18,1 C
18.06.2012 22:11 17,9 C 62 % 1018,7 hPa 0,0 l/m 1,4 km/h (1 Bft) NW 315 10,5 C 17,9 C
18.06.2012 22:16 17,9 C 62 % 1018,8 hPa 0,0 l/m 5,0 km/h (1 Bft) N 360 10,5 C 17,9 C
18.06.2012 22:21 17,9 C 62 % 1018,7 hPa 0,0 l/m 0,0 km/h (0 Bft) NW 315 10,5 C 17,9 C
18.06.2012 22:26 17,8 C 62 % 1019,0 hPa 0,0 l/m 2,5 km/h (1 Bft) W-NW 292 10,4 C 17,8 C
18.06.2012 22:31 17,8 C 62 % 1019,0 hPa 0,0 l/m 4,7 km/h (1 Bft) N-NW 337 10,4 C 17,8 C
18.06.2012 22:36 17,8 C 62 % 1019,1 hPa 0,0 l/m 0,0 km/h (0 Bft) NW 315 10,4 C 17,8 C
18.06.2012 22:41 17,5 C 63 % 1019,1 hPa 0,0 l/m 7,2 km/h (2 Bft) N 360 10,4 C 17,5 C
18.06.2012 22:46 17,3 C 63 % 1019,3 hPa 0,0 l/m 1,1 km/h (1 Bft) N 360 10,2 C 17,3 C
18.06.2012 22:51 17,3 C 63 % 1019,2 hPa 0,0 l/m 3,2 km/h (1 Bft) NO 45 10,2 C 17,3 C
18.06.2012 22:56 17,3 C 63 % 1019,3 hPa 0,0 l/m 6,8 km/h (2 Bft) W 270 10,2 C 17,3 C
18.06.2012 23:01 17,2 C 63 % 1019,3 hPa 0,0 l/m 5,0 km/h (1 Bft) NW 315 10,1 C 17,2 C
18.06.2012 23:06 17,1 C 63 % 1019,4 hPa 0,0 l/m 3,2 km/h (1 Bft) NW 315 10,0 C 17,1 C
18.06.2012 23:11 17,1 C 63 % 1019,4 hPa 0,0 l/m 3,6 km/h (1 Bft) W 270 10,0 C 17,1 C
18.06.2012 23:16 17,0 C 63 % 1019,6 hPa 0,0 l/m 2,5 km/h (1 Bft) W-NW 292 9,9 C 17,0 C
18.06.2012 23:21 16,9 C 63 % 1019,6 hPa 0,0 l/m 3,2 km/h (1 Bft) W 270 9,8 C 16,9 C
18.06.2012 23:26 16,9 C 63 % 1019,6 hPa 0,0 l/m 1,8 km/h (1 Bft) N-NO 22 9,8 C 16,9 C
18.06.2012 23:31 16,8 C 63 % 1019,8 hPa 0,0 l/m 3,2 km/h (1 Bft) NW 315 9,7 C 16,8 C
18.06.2012 23:36 16,7 C 64 % 1019,7 hPa 0,0 l/m 0,0 km/h (0 Bft) N-NW 337 9,9 C 16,7 C
18.06.2012 23:41 16,7 C 64 % 1019,8 hPa 0,0 l/m 1,4 km/h (1 Bft) N 360 9,9 C 16,7 C
18.06.2012 23:46 16,6 C 64 % 1020,0 hPa 0,0 l/m 3,2 km/h (1 Bft) N-NW 337 9,8 C 16,6 C
18.06.2012 23:51 16,5 C 64 % 1020,0 hPa 0,0 l/m 0,0 km/h (0 Bft) NW 315 9,7 C 16,5 C
18.06.2012 23:56 16,5 C 65 % 1020,1 hPa 0,0 l/m 0,0 km/h (0 Bft) N 360 9,9 C 16,5 C
_ Min-Zeit 05:11 18:21 16:56 - 00:01 - - 05:01 05:11
Minimum _ 13,1 C 41 % 1010,9 hPa - 0,0 km/h (0 Bft) - - 8,9 C 13,1 C
_ Max-Zeit 15:01 05:06 00:01 00:01 19:01 - - 16:36 15:01
Maximum _ 31,2 C 76 % 1022,5 hPa 0,0 l/m 36,7 km/h
NW (5 Bft)
- - 18,2 C 31,2 C
Durchschnitt _ 21,5 C 59 % 1016,7 hPa #0,0 l/m 10,4 km/h (2 Bft) O - 12,6 C 21,5 C
(c) by David Heller